createdAt,value
2019-04-25T00:00:01.946Z,1011.3
2019-04-25T00:01:01.122Z,1011.2
2019-04-25T00:02:01.811Z,1011.3
2019-04-25T00:03:01.218Z,1011.3
2019-04-25T00:04:01.992Z,1011.2
2019-04-25T00:05:01.274Z,1011.3
2019-04-25T00:06:02.245Z,1011.2
2019-04-25T00:07:02.203Z,1011.3
2019-04-25T00:08:01.492Z,1011.3
2019-04-25T00:09:01.862Z,1011.3
2019-04-25T00:10:01.575Z,1011.3
2019-04-25T00:11:01.683Z,1011.3
2019-04-25T00:12:02.232Z,1011.3
2019-04-25T00:13:01.639Z,1011.3
2019-04-25T00:14:01.533Z,1011.3
2019-04-25T00:15:01.467Z,1011.3
2019-04-25T00:16:01.822Z,1011.3
2019-04-25T00:17:01.701Z,1011.3
2019-04-25T00:18:02.314Z,1011.2
2019-04-25T00:19:01.828Z,1011.3
2019-04-25T00:20:01.661Z,1011.3
2019-04-25T00:21:01.427Z,1011.2
2019-04-25T00:22:01.959Z,1011.2
2019-04-25T00:23:01.994Z,1011.2
2019-04-25T00:24:02.606Z,1011.2
2019-04-25T00:25:14.236Z,1011.2
2019-04-25T00:26:01.601Z,1011.2
2019-04-25T00:27:02.177Z,1011.1
2019-04-25T00:28:01.899Z,1011.1
2019-04-25T00:29:01.944Z,1011.1
2019-04-25T00:30:01.903Z,1011.2
2019-04-25T00:31:02.095Z,1011.1
2019-04-25T00:32:01.867Z,1011.1
2019-04-25T00:33:02.063Z,1011.1
2019-04-25T00:34:02.209Z,1011.1
2019-04-25T00:35:02.091Z,1011.2
2019-04-25T00:36:03.784Z,1011.2
2019-04-25T00:37:02.472Z,1011.2
2019-04-25T00:38:02.406Z,1011.3
2019-04-25T00:39:02.118Z,1011.3
2019-04-25T00:40:02.070Z,1011.4
2019-04-25T00:41:02.113Z,1011.3
2019-04-25T00:42:02.434Z,1011.3
2019-04-25T00:43:02.142Z,1011.4
2019-04-25T00:44:02.426Z,1011.4
2019-04-25T00:45:02.458Z,1011.3
2019-04-25T00:46:02.218Z,1011.3
2019-04-25T00:47:02.576Z,1011.3
2019-04-25T00:48:04.304Z,1011.3
2019-04-25T00:49:02.561Z,1011.4
2019-04-25T00:50:02.463Z,1011.4
2019-04-25T00:51:02.362Z,1011.4
2019-04-25T00:52:02.383Z,1011.4
2019-04-25T00:53:02.387Z,1011.5
2019-04-25T00:54:02.530Z,1011.4
2019-04-25T00:55:02.418Z,1011.6
2019-04-25T00:56:02.457Z,1011.6
2019-04-25T00:57:02.498Z,1011.6
2019-04-25T00:58:03.342Z,1011.7
2019-04-25T00:59:02.516Z,1011.6
2019-04-25T01:00:02.526Z,1011.6
2019-04-25T01:01:02.549Z,1011.7
2019-04-25T01:02:02.543Z,1011.7
2019-04-25T01:03:03.310Z,1011.7
2019-04-25T01:04:02.559Z,1011.8
2019-04-25T01:05:02.574Z,1011.7
2019-04-25T01:06:03.754Z,1011.7
2019-04-25T01:07:02.592Z,1011.7
2019-04-25T01:08:02.614Z,1011.7
2019-04-25T01:09:02.591Z,1011.7
2019-04-25T01:10:02.684Z,1011.8
2019-04-25T01:11:02.580Z,1011.7
2019-04-25T01:12:04.047Z,1011.8
2019-04-25T01:13:03.071Z,1011.8
2019-04-25T01:14:02.626Z,1011.9
2019-04-25T01:15:02.634Z,1011.9
2019-04-25T01:16:04.048Z,1011.9
2019-04-25T01:17:02.815Z,1012
2019-04-25T01:18:02.824Z,1012
2019-04-25T01:19:03.514Z,1012
2019-04-25T01:20:04.146Z,1012
2019-04-25T01:21:04.418Z,1011.9
2019-04-25T01:22:03.818Z,1012
2019-04-25T01:23:03.761Z,1012
2019-04-25T01:24:04.266Z,1011.9
2019-04-25T01:25:03.760Z,1011.9
2019-04-25T01:26:03.329Z,1011.9
2019-04-25T01:27:03.313Z,1012.1
2019-04-25T01:28:03.294Z,1012
2019-04-25T01:29:03.655Z,1012.1
2019-04-25T01:30:03.968Z,1012.1
2019-04-25T01:31:03.834Z,1012.1
2019-04-25T01:32:03.438Z,1012.2
2019-04-25T01:33:03.581Z,1012.1
2019-04-25T01:34:04.327Z,1012.2
2019-04-25T01:35:03.950Z,1012.2
2019-04-25T01:36:03.630Z,1012.3
2019-04-25T01:37:04.145Z,1012.2
2019-04-25T01:38:03.742Z,1012.3
2019-04-25T01:39:04.285Z,1012.3
2019-04-25T01:40:04.101Z,1012.3
2019-04-25T01:41:03.821Z,1012.2
2019-04-25T01:42:05.261Z,1012.3
2019-04-25T01:43:03.877Z,1012.3
2019-04-25T01:44:04.499Z,1012.2
2019-04-25T01:45:04.122Z,1012.2
2019-04-25T01:46:04.016Z,1012.2
2019-04-25T01:47:04.258Z,1012.2
2019-04-25T01:48:04.170Z,1012.3
2019-04-25T01:49:04.338Z,1012.2
2019-04-25T01:50:04.249Z,1012.3
2019-04-25T01:51:04.287Z,1012.2
2019-04-25T01:52:04.335Z,1012.3
2019-04-25T01:53:04.378Z,1012.2
2019-04-25T01:54:04.447Z,1012.4
2019-04-25T01:55:05.530Z,1012.4
2019-04-25T01:56:07.559Z,1012.4
2019-04-25T01:57:04.576Z,1012.5
2019-04-25T01:58:04.607Z,1012.5
2019-04-25T01:59:04.676Z,1012.6
2019-04-25T02:00:04.688Z,1012.6
2019-04-25T02:01:04.717Z,1012.6
2019-04-25T02:02:06.651Z,1012.7
2019-04-25T02:03:04.850Z,1012.6
2019-04-25T02:04:04.797Z,1012.6
2019-04-25T02:05:05.147Z,1012.6
2019-04-25T02:06:05.087Z,1012.7
2019-04-25T02:07:04.918Z,1012.7
2019-04-25T02:08:06.868Z,1012.7
2019-04-25T02:09:05.266Z,1012.8
2019-04-25T02:10:05.036Z,1012.7
2019-04-25T02:11:05.095Z,1012.7
2019-04-25T02:12:05.103Z,1012.8
2019-04-25T02:13:05.129Z,1012.7
2019-04-25T02:14:05.291Z,1012.7
2019-04-25T02:15:06.126Z,1012.9
2019-04-25T02:16:05.377Z,1012.9
2019-04-25T02:17:05.310Z,1012.9
2019-04-25T02:18:05.365Z,1012.9
2019-04-25T02:19:05.411Z,1012.9
2019-04-25T02:20:05.397Z,1013
2019-04-25T02:21:05.545Z,1013
2019-04-25T02:22:05.503Z,1013
2019-04-25T02:23:05.557Z,1013
2019-04-25T02:24:05.723Z,1013.1
2019-04-25T02:25:05.574Z,1013.1
2019-04-25T02:26:15.126Z,1013.1
2019-04-25T02:27:05.597Z,1013.3
2019-04-25T02:28:05.786Z,1013.2
2019-04-25T02:29:05.670Z,1013.2
2019-04-25T02:30:06.835Z,1013.2
2019-04-25T02:31:08.725Z,1013.2
2019-04-25T02:32:08.891Z,1013.2
2019-04-25T02:33:08.538Z,1013.2
2019-04-25T02:34:08.305Z,1013.2
2019-04-25T02:35:09.241Z,1013.1
2019-04-25T02:36:08.512Z,1013.2
2019-04-25T02:37:09.228Z,1013.2
2019-04-25T02:38:08.729Z,1013.2
2019-04-25T02:39:08.876Z,1013.2
2019-04-25T02:40:07.975Z,1013.2
2019-04-25T02:41:08.455Z,1013.3
2019-04-25T02:42:08.187Z,1013.3
2019-04-25T02:43:08.112Z,1013.3
2019-04-25T02:44:09.513Z,1013.3
2019-04-25T02:45:08.142Z,1013.3
2019-04-25T02:46:07.652Z,1013.4
2019-04-25T02:47:07.909Z,1013.4
2019-04-25T02:48:07.016Z,1013.4
2019-04-25T02:49:08.789Z,1013.3
2019-04-25T02:50:08.365Z,1013.4
2019-04-25T02:51:07.501Z,1013.4
2019-04-25T02:52:07.376Z,1013.3
2019-04-25T02:53:07.350Z,1013.4
2019-04-25T02:54:08.024Z,1013.4
2019-04-25T02:55:10.254Z,1013.4
2019-04-25T02:56:25.956Z,1013.3
2019-04-25T02:57:08.143Z,1013.4
2019-04-25T02:58:09.735Z,1013.3
2019-04-25T02:59:08.511Z,1013.3
2019-04-25T03:00:08.326Z,1013.3
2019-04-25T03:01:16.131Z,1013.3
2019-04-25T03:02:08.531Z,1013.2
2019-04-25T03:03:07.474Z,1013.2
2019-04-25T03:04:09.465Z,1013.3
2019-04-25T03:05:09.500Z,1013.3
2019-04-25T03:06:09.252Z,1013.3
2019-04-25T03:07:07.984Z,1013.4
2019-04-25T03:08:08.765Z,1013.3
2019-04-25T03:09:09.087Z,1013.4
2019-04-25T03:10:09.741Z,1013.3
2019-04-25T03:11:07.996Z,1013.3
2019-04-25T03:12:07.902Z,1013.4
2019-04-25T03:13:10.104Z,1013.3
2019-04-25T03:14:08.617Z,1013.4
2019-04-25T03:15:08.712Z,1013.4
2019-04-25T03:16:09.013Z,1013.3
2019-04-25T03:17:08.598Z,1013.3
2019-04-25T03:18:10.752Z,1013.3
2019-04-25T03:19:07.953Z,1013.4
2019-04-25T03:20:09.500Z,1013.3
2019-04-25T03:21:12.322Z,1013.5
2019-04-25T03:22:09.931Z,1013.5
2019-04-25T03:23:08.694Z,1013.5
2019-04-25T03:24:10.090Z,1013.5
2019-04-25T03:25:11.453Z,1013.5
2019-04-25T03:26:07.485Z,1013.5
2019-04-25T03:27:07.418Z,1013.6
2019-04-25T03:28:07.221Z,1013.6
2019-04-25T03:29:07.311Z,1013.5
2019-04-25T03:30:11.687Z,1013.6
2019-04-25T03:31:12.934Z,1013.6
2019-04-25T03:32:11.696Z,1013.6
2019-04-25T03:33:11.815Z,1013.6
2019-04-25T03:34:11.821Z,1013.6
2019-04-25T03:35:07.558Z,1013.6
2019-04-25T03:36:07.863Z,1013.7
2019-04-25T03:37:07.714Z,1013.6
2019-04-25T03:38:08.390Z,1013.7
2019-04-25T03:39:08.671Z,1013.6
2019-04-25T03:40:07.913Z,1013.7
2019-04-25T03:41:08.644Z,1013.7
2019-04-25T03:42:07.833Z,1013.8
2019-04-25T03:43:07.837Z,1013.8
2019-04-25T03:44:08.018Z,1013.8
2019-04-25T03:45:07.959Z,1013.8
2019-04-25T03:46:08.300Z,1013.9
2019-04-25T03:47:08.646Z,1013.8
2019-04-25T03:48:08.062Z,1013.9
2019-04-25T03:49:08.105Z,1013.9
2019-04-25T03:50:08.252Z,1013.9
2019-04-25T03:51:08.159Z,1013.9
2019-04-25T03:52:08.207Z,1013.9
2019-04-25T03:53:08.263Z,1013.9
2019-04-25T03:54:09.295Z,1013.8
2019-04-25T03:55:08.656Z,1013.9
2019-04-25T03:56:08.626Z,1013.9
2019-04-25T03:57:08.530Z,1013.9
2019-04-25T03:58:10.639Z,1013.9
2019-04-25T03:59:08.544Z,1013.9
2019-04-25T04:00:08.757Z,1014
2019-04-25T04:01:09.536Z,1013.8
2019-04-25T04:02:09.094Z,1013.9
2019-04-25T04:03:09.064Z,1013.9
2019-04-25T04:04:09.057Z,1013.9
2019-04-25T04:05:09.594Z,1013.9
2019-04-25T04:06:09.779Z,1013.9
2019-04-25T04:07:10.781Z,1014
2019-04-25T04:08:09.688Z,1014
2019-04-25T04:09:09.721Z,1014
2019-04-25T04:10:09.927Z,1014
2019-04-25T04:11:10.028Z,1014
2019-04-25T04:12:08.989Z,1014
2019-04-25T04:13:09.022Z,1014
2019-04-25T04:14:09.068Z,1014
2019-04-25T04:15:09.109Z,1014
2019-04-25T04:16:09.131Z,1014
2019-04-25T04:17:09.180Z,1014
2019-04-25T04:18:09.186Z,1014
2019-04-25T04:19:09.191Z,1014
2019-04-25T04:20:09.219Z,1014
2019-04-25T04:21:09.216Z,1013.9
2019-04-25T04:22:09.243Z,1014
2019-04-25T04:23:09.283Z,1013.9
2019-04-25T04:24:09.601Z,1014
2019-04-25T04:25:09.529Z,1014
2019-04-25T04:26:09.551Z,1014.1
2019-04-25T04:27:10.613Z,1014
2019-04-25T04:28:09.745Z,1014.1
2019-04-25T04:29:10.076Z,1013.9
2019-04-25T04:30:10.049Z,1014
2019-04-25T04:31:10.209Z,1014.1
2019-04-25T04:32:10.468Z,1014.1
2019-04-25T04:33:21.389Z,1014.1
2019-04-25T04:34:09.590Z,1014.1
2019-04-25T04:35:09.613Z,1014.1
2019-04-25T04:36:09.639Z,1014.2
2019-04-25T04:37:09.619Z,1014.1
2019-04-25T04:38:09.698Z,1014.1
2019-04-25T04:39:09.994Z,1014.1
2019-04-25T04:40:09.712Z,1014
2019-04-25T04:41:09.769Z,1014.1
2019-04-25T04:42:09.703Z,1014
2019-04-25T04:43:09.749Z,1014.1
2019-04-25T04:44:10.008Z,1014.1
2019-04-25T04:45:10.155Z,1014.2
2019-04-25T04:46:10.225Z,1014.1
2019-04-25T04:47:10.031Z,1014.1
2019-04-25T04:48:10.226Z,1014.1
2019-04-25T04:49:10.229Z,1014.2
2019-04-25T04:50:10.576Z,1014.2
2019-04-25T04:51:10.536Z,1014.2
2019-04-25T04:52:10.528Z,1014.2
2019-04-25T04:53:10.924Z,1014.2
2019-04-25T04:54:09.900Z,1014.1
2019-04-25T04:55:11.546Z,1014.2
2019-04-25T04:56:09.912Z,1014.2
2019-04-25T04:57:19.606Z,1014.1
2019-04-25T04:58:10.365Z,1014.2
2019-04-25T04:59:10.803Z,1014.2
2019-04-25T05:00:10.241Z,1014.2
2019-04-25T05:01:10.210Z,1014.2
2019-04-25T05:02:10.625Z,1014.2
2019-04-25T05:03:10.342Z,1014.2
2019-04-25T05:04:10.593Z,1014.2
2019-04-25T05:05:10.594Z,1014.2
2019-04-25T05:06:10.915Z,1014.3
2019-04-25T05:07:11.052Z,1014.3
2019-04-25T05:08:11.032Z,1014.2
2019-04-25T05:09:11.836Z,1014.4
2019-04-25T05:10:10.437Z,1014.3
2019-04-25T05:11:10.404Z,1014.4
2019-04-25T05:12:10.691Z,1014.4
2019-04-25T05:13:11.363Z,1014.4
2019-04-25T05:14:11.033Z,1014.5
2019-04-25T05:15:10.498Z,1014.5
2019-04-25T05:16:11.141Z,1014.4
2019-04-25T05:17:11.327Z,1014.4
2019-04-25T05:18:11.495Z,1014.5
2019-04-25T05:19:11.511Z,1014.5
2019-04-25T05:20:10.731Z,1014.5
2019-04-25T05:21:10.708Z,1014.5
2019-04-25T05:22:10.771Z,1014.5
2019-04-25T05:23:10.876Z,1014.5
2019-04-25T05:24:10.859Z,1014.5
2019-04-25T05:25:10.978Z,1014.5
2019-04-25T05:26:10.973Z,1014.5
2019-04-25T05:27:11.048Z,1014.6
2019-04-25T05:28:11.007Z,1014.5
2019-04-25T05:29:11.073Z,1014.6
2019-04-25T05:30:11.142Z,1014.5
2019-04-25T05:31:11.178Z,1014.5
2019-04-25T05:32:11.293Z,1014.5
2019-04-25T05:33:11.301Z,1014.5
2019-04-25T05:34:11.331Z,1014.6
2019-04-25T05:35:11.377Z,1014.6
2019-04-25T05:36:11.426Z,1014.6
2019-04-25T05:37:11.483Z,1014.6
2019-04-25T05:38:13.164Z,1014.7
2019-04-25T05:39:11.571Z,1014.6
2019-04-25T05:40:11.613Z,1014.6
2019-04-25T05:41:11.641Z,1014.5
2019-04-25T05:42:11.736Z,1014.6
2019-04-25T05:43:13.214Z,1014.7
2019-04-25T05:44:11.795Z,1014.7
2019-04-25T05:45:13.009Z,1014.6
2019-04-25T05:46:13.192Z,1014.7
2019-04-25T05:47:11.832Z,1014.7
2019-04-25T05:48:11.846Z,1014.8
2019-04-25T05:49:11.897Z,1014.7
2019-04-25T05:50:11.921Z,1014.8
2019-04-25T05:51:13.234Z,1014.8
2019-04-25T05:52:11.956Z,1014.7
2019-04-25T05:53:12.006Z,1014.8
2019-04-25T05:54:12.014Z,1014.8
2019-04-25T05:55:14.238Z,1014.8
2019-04-25T05:56:14.589Z,1014.9
2019-04-25T05:57:13.340Z,1014.8
2019-04-25T05:58:13.438Z,1014.9
2019-04-25T05:59:13.405Z,1014.8
2019-04-25T06:00:13.396Z,1014.9
2019-04-25T06:01:13.373Z,1014.9
2019-04-25T06:02:13.857Z,1014.9
2019-04-25T06:03:13.676Z,1014.9
2019-04-25T06:04:13.900Z,1014.9
2019-04-25T06:05:13.167Z,1014.9
2019-04-25T06:06:13.397Z,1014.9
2019-04-25T06:07:14.352Z,1014.8
2019-04-25T06:08:13.946Z,1014.9
2019-04-25T06:09:13.995Z,1015
2019-04-25T06:10:14.258Z,1015
2019-04-25T06:11:13.529Z,1015
2019-04-25T06:12:13.430Z,1014.9
2019-04-25T06:13:13.750Z,1015
2019-04-25T06:14:13.497Z,1015
2019-04-25T06:15:13.190Z,1014.9
2019-04-25T06:16:13.348Z,1015
2019-04-25T06:17:13.681Z,1015
2019-04-25T06:18:13.976Z,1015
2019-04-25T06:19:16.349Z,1015
2019-04-25T06:20:13.409Z,1015.1
2019-04-25T06:21:13.268Z,1014.9
2019-04-25T06:22:13.056Z,1014.9
2019-04-25T06:23:15.240Z,1014.9
2019-04-25T06:24:13.272Z,1014.9
2019-04-25T06:25:16.017Z,1014.9
2019-04-25T06:26:20.507Z,1015
2019-04-25T06:27:13.911Z,1015
2019-04-25T06:28:13.708Z,1015
2019-04-25T06:29:13.377Z,1015.1
2019-04-25T06:30:13.953Z,1015
2019-04-25T06:31:13.744Z,1015
2019-04-25T06:32:14.200Z,1015
2019-04-25T06:33:13.358Z,1015
2019-04-25T06:34:14.051Z,1014.9
2019-04-25T06:35:14.286Z,1015
2019-04-25T06:36:13.950Z,1015
2019-04-25T06:37:13.839Z,1015
2019-04-25T06:38:13.396Z,1015
2019-04-25T06:39:14.167Z,1015
2019-04-25T06:40:13.666Z,1014.9
2019-04-25T06:41:13.459Z,1014.9
2019-04-25T06:42:13.803Z,1014.9
2019-04-25T06:43:13.497Z,1014.9
2019-04-25T06:44:13.665Z,1014.9
2019-04-25T06:45:13.492Z,1014.8
2019-04-25T06:46:14.030Z,1014.9
2019-04-25T06:47:15.072Z,1014.8
2019-04-25T06:48:13.964Z,1014.9
2019-04-25T06:49:13.465Z,1015
2019-04-25T06:50:45.442Z,1014.9
2019-04-25T06:51:13.502Z,1014.9
2019-04-25T06:52:13.889Z,1014.9
2019-04-25T06:53:13.704Z,1014.8
2019-04-25T06:54:13.556Z,1014.8
2019-04-25T06:55:14.068Z,1014.9
2019-04-25T06:56:13.796Z,1014.9
2019-04-25T06:57:14.095Z,1014.8
2019-04-25T06:58:14.506Z,1014.6
2019-04-25T06:59:13.813Z,1014.8
2019-04-25T07:00:14.132Z,1014.7
2019-04-25T07:01:13.932Z,1014.7
2019-04-25T07:02:14.096Z,1014.6
2019-04-25T07:03:15.488Z,1014.6
2019-04-25T07:04:14.108Z,1014.7
2019-04-25T07:05:25.769Z,1014.7
2019-04-25T07:06:14.705Z,1014.6
2019-04-25T07:07:14.895Z,1014.5
2019-04-25T07:08:14.150Z,1014.5
2019-04-25T07:09:14.588Z,1014.6
2019-04-25T07:10:14.262Z,1014.5
2019-04-25T07:11:14.349Z,1014.6
2019-04-25T07:12:14.367Z,1014.5
2019-04-25T07:13:14.415Z,1014.5
2019-04-25T07:14:14.462Z,1014.5
2019-04-25T07:15:14.524Z,1014.5
2019-04-25T07:16:14.515Z,1014.5
2019-04-25T07:17:14.548Z,1014.4
2019-04-25T07:18:14.638Z,1014.5
2019-04-25T07:19:17.353Z,1014.5
2019-04-25T07:20:14.638Z,1014.5
2019-04-25T07:21:14.686Z,1014.6
2019-04-25T07:22:15.442Z,1014.6
2019-04-25T07:23:14.757Z,1014.5
2019-04-25T07:24:17.409Z,1014.6
2019-04-25T07:25:14.758Z,1014.6
2019-04-25T07:26:14.784Z,1014.6
2019-04-25T07:27:14.825Z,1014.6
2019-04-25T07:28:23.504Z,1014.5
2019-04-25T07:29:14.867Z,1014.6
2019-04-25T07:30:26.831Z,1014.5
2019-04-25T07:31:15.002Z,1014.5
2019-04-25T07:32:14.998Z,1014.5
2019-04-25T07:33:15.042Z,1014.5
2019-04-25T07:34:15.079Z,1014.5
2019-04-25T07:35:15.098Z,1014.6
2019-04-25T07:36:15.590Z,1014.5
2019-04-25T07:37:15.195Z,1014.5
2019-04-25T07:38:15.340Z,1014.5
2019-04-25T07:39:15.276Z,1014.4
2019-04-25T07:40:15.282Z,1014.5
2019-04-25T07:41:16.339Z,1014.5
2019-04-25T07:42:15.348Z,1014.4
2019-04-25T07:43:15.391Z,1014.5
2019-04-25T07:44:15.449Z,1014.5
2019-04-25T07:45:15.545Z,1014.5
2019-04-25T07:46:15.720Z,1014.5
2019-04-25T07:47:15.864Z,1014.5
2019-04-25T07:48:15.551Z,1014.6
2019-04-25T07:49:15.578Z,1014.5
2019-04-25T07:50:15.584Z,1014.6
2019-04-25T07:51:16.482Z,1014.6
2019-04-25T07:52:15.643Z,1014.7
2019-04-25T07:53:15.643Z,1014.7
2019-04-25T07:54:15.680Z,1014.6
2019-04-25T07:55:15.707Z,1014.6
2019-04-25T07:56:15.744Z,1014.6
2019-04-25T07:57:15.837Z,1014.5
2019-04-25T07:58:15.842Z,1014.6
2019-04-25T07:59:15.810Z,1014.5
2019-04-25T08:00:15.837Z,1014.6
2019-04-25T08:01:15.955Z,1014.6
2019-04-25T08:02:15.891Z,1014.6
2019-04-25T08:03:15.917Z,1014.6
2019-04-25T08:04:15.924Z,1014.6
2019-04-25T08:05:15.982Z,1014.6
2019-04-25T08:06:15.988Z,1014.6
2019-04-25T08:07:15.996Z,1014.6
2019-04-25T08:08:16.012Z,1014.6
2019-04-25T08:09:16.015Z,1014.6
2019-04-25T08:10:16.009Z,1014.5
2019-04-25T08:11:16.026Z,1014.5
2019-04-25T08:12:16.043Z,1014.5
2019-04-25T08:13:16.043Z,1014.5
2019-04-25T08:14:16.053Z,1014.5
2019-04-25T08:15:16.068Z,1014.5
2019-04-25T08:16:16.138Z,1014.5
2019-04-25T08:17:16.104Z,1014.4
2019-04-25T08:18:16.097Z,1014.4
2019-04-25T08:19:19.137Z,1014.5
2019-04-25T08:20:16.103Z,1014.4
2019-04-25T08:21:16.112Z,1014.4
2019-04-25T08:22:16.116Z,1014.4
2019-04-25T08:23:16.112Z,1014.5
2019-04-25T08:24:16.109Z,1014.5
2019-04-25T08:25:16.137Z,1014.5
2019-04-25T08:26:16.139Z,1014.4
2019-04-25T08:27:16.152Z,1014.4
2019-04-25T08:28:16.154Z,1014.4
2019-04-25T08:29:16.173Z,1014.3
2019-04-25T08:30:16.122Z,1014.4
2019-04-25T08:31:16.255Z,1014.3
2019-04-25T08:32:16.290Z,1014.3
2019-04-25T08:33:16.368Z,1014.4
2019-04-25T08:34:16.451Z,1014.4
2019-04-25T08:35:16.582Z,1014.3
2019-04-25T08:36:16.528Z,1014.3
2019-04-25T08:37:18.625Z,1014.3
2019-04-25T08:38:16.620Z,1014.3
2019-04-25T08:39:16.659Z,1014.2
2019-04-25T08:40:16.726Z,1014.3
2019-04-25T08:41:16.709Z,1014.3
2019-04-25T08:42:16.763Z,1014.2
2019-04-25T08:43:16.806Z,1014.3
2019-04-25T08:44:16.903Z,1014.4
2019-04-25T08:45:16.948Z,1014.3
2019-04-25T08:46:16.987Z,1014.3
2019-04-25T08:47:17.040Z,1014.3
2019-04-25T08:48:17.106Z,1014.4
2019-04-25T08:49:17.155Z,1014.3
2019-04-25T08:50:26.642Z,1014.3
2019-04-25T08:51:17.494Z,1014.3
2019-04-25T08:52:17.305Z,1014.3
2019-04-25T08:53:17.404Z,1014.3
2019-04-25T08:54:17.447Z,1014.3
2019-04-25T08:55:17.513Z,1014.3
2019-04-25T08:56:18.562Z,1014.2
2019-04-25T08:57:17.624Z,1014.3
2019-04-25T08:58:17.772Z,1014.2
2019-04-25T08:59:17.726Z,1014.2
2019-04-25T09:00:17.783Z,1014.2
2019-04-25T09:01:17.816Z,1014.2
2019-04-25T09:02:17.859Z,1014.1
2019-04-25T09:03:17.887Z,1014.2
2019-04-25T09:04:17.921Z,1014.1
2019-04-25T09:05:18.048Z,1014.1
2019-04-25T09:06:18.022Z,1014.1
2019-04-25T09:07:18.074Z,1014.1
2019-04-25T09:08:18.149Z,1014.1
2019-04-25T09:09:18.172Z,1014.1
2019-04-25T09:10:18.255Z,1014.1
2019-04-25T09:11:18.298Z,1014.1
2019-04-25T09:12:18.302Z,1014.1
2019-04-25T09:13:18.346Z,1014.1
2019-04-25T09:14:18.395Z,1014.1
2019-04-25T09:15:18.442Z,1014.1
2019-04-25T09:16:18.486Z,1014.1
2019-04-25T09:17:18.527Z,1014.1
2019-04-25T09:18:18.557Z,1014.1
2019-04-25T09:19:18.608Z,1014.1
2019-04-25T09:20:18.654Z,1014
2019-04-25T09:21:18.669Z,1014.1
2019-04-25T09:22:18.719Z,1014.1
2019-04-25T09:23:18.740Z,1014.2
2019-04-25T09:24:18.810Z,1014.1
2019-04-25T09:25:18.848Z,1014
2019-04-25T09:26:18.849Z,1014.1
2019-04-25T09:27:18.891Z,1014
2019-04-25T09:28:18.902Z,1014.1
2019-04-25T09:29:19.828Z,1014
2019-04-25T09:30:18.957Z,1014
2019-04-25T09:31:18.986Z,1014
2019-04-25T09:32:21.465Z,1014
2019-04-25T09:33:19.049Z,1014
2019-04-25T09:34:19.044Z,1013.9
2019-04-25T09:35:20.210Z,1013.9
2019-04-25T09:36:19.090Z,1013.9
2019-04-25T09:37:19.123Z,1014
2019-04-25T09:38:19.143Z,1013.9
2019-04-25T09:39:19.164Z,1013.8
2019-04-25T09:40:19.212Z,1013.8
2019-04-25T09:41:19.226Z,1013.8
2019-04-25T09:42:19.270Z,1013.9
2019-04-25T09:43:19.295Z,1013.9
2019-04-25T09:44:19.266Z,1013.8
2019-04-25T09:45:19.268Z,1013.7
2019-04-25T09:46:19.296Z,1013.7
2019-04-25T09:47:19.306Z,1013.7
2019-04-25T09:48:19.314Z,1013.8
2019-04-25T09:49:19.382Z,1013.8
2019-04-25T09:50:19.347Z,1013.7
2019-04-25T09:51:19.374Z,1013.7
2019-04-25T09:52:19.393Z,1013.7
2019-04-25T09:53:23.056Z,1013.6
2019-04-25T09:54:19.396Z,1013.6
2019-04-25T09:55:19.395Z,1013.6
2019-04-25T09:56:19.385Z,1013.7
2019-04-25T09:57:19.406Z,1013.5
2019-04-25T09:58:19.449Z,1013.6
2019-04-25T09:59:27.042Z,1013.6
2019-04-25T10:00:19.517Z,1013.6
2019-04-25T10:01:19.540Z,1013.6
2019-04-25T10:02:19.453Z,1013.6
2019-04-25T10:03:19.482Z,1013.5
2019-04-25T10:04:19.486Z,1013.5
2019-04-25T10:05:19.461Z,1013.6
2019-04-25T10:06:19.484Z,1013.6
2019-04-25T10:07:19.492Z,1013.5
2019-04-25T10:08:19.471Z,1013.4
2019-04-25T10:09:19.512Z,1013.5
2019-04-25T10:10:19.550Z,1013.5
2019-04-25T10:11:19.607Z,1013.4
2019-04-25T10:12:19.634Z,1013.5
2019-04-25T10:13:19.659Z,1013.4
2019-04-25T10:14:19.672Z,1013.4
2019-04-25T10:15:19.731Z,1013.3
2019-04-25T10:16:19.790Z,1013.3
2019-04-25T10:17:19.828Z,1013.4
2019-04-25T10:18:19.905Z,1013.3
2019-04-25T10:19:19.916Z,1013.4
2019-04-25T10:20:20.011Z,1013.3
2019-04-25T10:21:20.060Z,1013.3
2019-04-25T10:22:20.102Z,1013.2
2019-04-25T10:23:20.161Z,1013.2
2019-04-25T10:24:20.202Z,1013.2
2019-04-25T10:25:20.273Z,1013.2
2019-04-25T10:26:20.312Z,1013.2
2019-04-25T10:27:20.414Z,1013.2
2019-04-25T10:28:20.443Z,1013.3
2019-04-25T10:29:20.531Z,1013.2
2019-04-25T10:30:23.461Z,1013.1
2019-04-25T10:31:20.891Z,1013.2
2019-04-25T10:32:20.580Z,1013.2
2019-04-25T10:33:20.645Z,1013.1
2019-04-25T10:34:20.625Z,1013.1
2019-04-25T10:35:20.695Z,1013.1
2019-04-25T10:36:20.761Z,1013.1
2019-04-25T10:37:20.967Z,1013.2
2019-04-25T10:38:20.928Z,1013.1
2019-04-25T10:39:20.944Z,1013.1
2019-04-25T10:40:20.921Z,1013.1
2019-04-25T10:41:20.892Z,1013.1
2019-04-25T10:42:20.923Z,1013.1
2019-04-25T10:43:21.712Z,1013.1
2019-04-25T10:44:21.053Z,1013
2019-04-25T10:45:23.623Z,1013.1
2019-04-25T10:46:21.088Z,1013.1
2019-04-25T10:47:21.055Z,1013.1
2019-04-25T10:48:21.109Z,1013.1
2019-04-25T10:49:21.178Z,1013.1
2019-04-25T10:50:21.216Z,1013.1
2019-04-25T10:51:21.241Z,1013
2019-04-25T10:52:21.309Z,1013.1
2019-04-25T10:53:21.368Z,1013.1
2019-04-25T10:54:21.428Z,1013
2019-04-25T10:55:23.210Z,1013
2019-04-25T10:56:21.521Z,1013
2019-04-25T10:57:21.543Z,1013
2019-04-25T10:58:21.595Z,1012.9
2019-04-25T10:59:23.401Z,1013
2019-04-25T11:00:21.694Z,1013
2019-04-25T11:01:24.592Z,1013
2019-04-25T11:02:23.464Z,1013
2019-04-25T11:03:21.736Z,1013.1
2019-04-25T11:04:21.870Z,1013.1
2019-04-25T11:05:21.797Z,1013.1
2019-04-25T11:06:23.286Z,1013.1
2019-04-25T11:07:23.287Z,1013.1
2019-04-25T11:08:21.953Z,1013.1
2019-04-25T11:09:21.931Z,1013.1
2019-04-25T11:10:23.474Z,1013.1
2019-04-25T11:11:22.000Z,1013.2
2019-04-25T11:12:23.464Z,1013.2
2019-04-25T11:13:22.070Z,1013.2
2019-04-25T11:14:23.712Z,1013.2
2019-04-25T11:15:23.361Z,1013.2
2019-04-25T11:16:22.184Z,1013.3
2019-04-25T11:17:24.089Z,1013.2
2019-04-25T11:18:23.800Z,1013.2
2019-04-25T11:19:23.819Z,1013.2
2019-04-25T11:20:23.175Z,1013.2
2019-04-25T11:21:24.146Z,1013.2
2019-04-25T11:22:23.880Z,1013.2
2019-04-25T11:23:22.294Z,1013.2
2019-04-25T11:24:23.640Z,1013.2
2019-04-25T11:25:24.001Z,1013.2
2019-04-25T11:26:22.364Z,1013.1
2019-04-25T11:27:23.942Z,1013.2
2019-04-25T11:28:23.417Z,1013.1
2019-04-25T11:29:23.984Z,1013.1
2019-04-25T11:30:22.469Z,1013.1
2019-04-25T11:31:23.485Z,1013.2
2019-04-25T11:32:23.779Z,1013.1
2019-04-25T11:33:22.938Z,1013.1
2019-04-25T11:34:22.807Z,1013.1
2019-04-25T11:35:24.804Z,1012.9
2019-04-25T11:36:22.565Z,1013.1
2019-04-25T11:37:23.841Z,1013.2
2019-04-25T11:38:23.726Z,1012.9
2019-04-25T11:39:23.900Z,1012.9
2019-04-25T11:40:23.393Z,1013
2019-04-25T11:41:24.089Z,1012.9
2019-04-25T11:42:23.289Z,1012.8
2019-04-25T11:43:22.712Z,1012.9
2019-04-25T11:44:24.388Z,1012.9
2019-04-25T11:45:22.717Z,1012.9
2019-04-25T11:46:24.137Z,1012.9
2019-04-25T11:47:24.117Z,1012.8
2019-04-25T11:48:23.809Z,1012.8
2019-04-25T11:49:23.817Z,1012.8
2019-04-25T11:50:22.778Z,1012.7
2019-04-25T11:51:23.975Z,1012.7
2019-04-25T11:52:27.949Z,1012.7
2019-04-25T11:53:24.708Z,1012.7
2019-04-25T11:54:24.248Z,1012.6
2019-04-25T11:55:23.869Z,1012.6
2019-04-25T11:56:24.101Z,1012.6
2019-04-25T11:57:23.283Z,1012.6
2019-04-25T11:58:23.534Z,1012.6
2019-04-25T11:59:23.492Z,1012.6
2019-04-25T12:00:24.414Z,1012.7
2019-04-25T12:01:24.289Z,1012.6
2019-04-25T12:02:23.938Z,1012.6
2019-04-25T12:03:22.963Z,1012.6
2019-04-25T12:04:23.900Z,1012.6
2019-04-25T12:05:23.465Z,1012.6
2019-04-25T12:06:24.281Z,1012.5
2019-04-25T12:07:23.660Z,1012.5
2019-04-25T12:08:24.260Z,1012.4
2019-04-25T12:09:24.071Z,1012.4
2019-04-25T12:10:24.213Z,1012.4
2019-04-25T12:11:23.623Z,1012.5
2019-04-25T12:12:23.567Z,1012.4
2019-04-25T12:13:24.233Z,1012.4
2019-04-25T12:14:23.495Z,1012.4
2019-04-25T12:15:24.067Z,1012.3
2019-04-25T12:16:24.612Z,1012.3
2019-04-25T12:17:23.553Z,1012.2
2019-04-25T12:18:23.574Z,1012.3
2019-04-25T12:19:34.474Z,1012.3
2019-04-25T12:20:23.644Z,1012.2
2019-04-25T12:21:23.988Z,1012.3
2019-04-25T12:22:23.903Z,1012.3
2019-04-25T12:23:23.935Z,1012.2
2019-04-25T12:24:24.008Z,1012.2
2019-04-25T12:25:23.953Z,1012.1
2019-04-25T12:26:26.124Z,1012.2
2019-04-25T12:27:24.051Z,1012.2
2019-04-25T12:28:24.149Z,1012.2
2019-04-25T12:29:24.447Z,1012.2
2019-04-25T12:30:36.344Z,1012.4
2019-04-25T12:31:24.293Z,1012.2
2019-04-25T12:32:24.312Z,1012.2
2019-04-25T12:33:24.324Z,1012.2